Time;durP1;ratioP1;P1;durP2;ratioP2;P2;SDS_P1;SDS_P2;PMS_P1;PMS_P2;Temp;Humidity;BMP_temperature;BMP_pressure;BME280_temperature;BME280_humidity;BME280_pressure;Samples;Min_cycle;Max_cycle;Signal;HPM_P1;HPM_P2
2021/11/12 00:02:50;;;;;;;206.15;85.20;;;1.20;99.90;;;;;;5032807;28;20032;-73
2021/11/12 00:13:30;;;;;;;198.10;78.60;;;1.20;99.90;;;;;;5032479;28;20040;-73
2021/11/12 00:16:00;;;;;;;185.43;75.50;;;1.20;99.90;;;;;;5032650;28;20022;-73
2021/11/12 00:18:28;;;;;;;199.43;84.70;;;1.20;99.90;;;;;;5032426;28;20470;-73
2021/11/12 00:20:56;;;;;;;175.95;78.47;;;1.20;99.90;;;;;;5032311;28;20228;-73
2021/11/12 00:23:23;;;;;;;200.77;84.57;;;1.10;99.90;;;;;;5032452;28;20364;-73
2021/11/12 00:25:50;;;;;;;231.63;87.90;;;1.10;99.90;;;;;;5032382;28;20112;-73
2021/11/12 00:28:19;;;;;;;248.05;97.32;;;1.10;99.90;;;;;;5034758;28;20398;-73
2021/11/12 00:31:00;;;;;;;192.60;75.25;;;1.10;99.90;;;;;;5035918;28;20071;-73
2021/11/12 00:38:49;;;;;;;367.95;111.00;;;1.00;99.90;;;;;;5036090;28;20034;-73
2021/11/12 00:46:40;;;;;;;519.17;165.68;;;1.00;99.90;;;;;;5035589;28;20026;-73
2021/11/12 00:49:10;;;;;;;292.70;100.53;;;1.00;99.90;;;;;;5035651;28;20060;-73
2021/11/12 00:51:43;;;;;;;214.63;79.55;;;1.00;99.90;;;;;;5035566;28;20033;-73
2021/11/12 00:54:09;;;;;;;282.15;86.10;;;1.00;99.90;;;;;;5035476;28;20024;-73
2021/11/12 00:56:35;;;;;;;212.52;71.80;;;1.10;99.90;;;;;;5035528;28;20021;-73
2021/11/12 00:59:04;;;;;;;250.38;82.32;;;1.10;99.90;;;;;;5035430;28;20049;-73
2021/11/12 01:01:33;;;;;;;220.30;73.38;;;1.10;99.90;;;;;;5035238;28;20025;-73
2021/11/12 01:04:00;;;;;;;201.18;72.05;;;1.10;99.90;;;;;;5035346;28;20032;-73
2021/11/12 01:06:26;;;;;;;198.82;77.93;;;1.20;99.90;;;;;;5033964;28;20029;-73
2021/11/12 01:08:52;;;;;;;200.38;71.88;;;1.20;99.90;;;;;;5035260;28;20033;-73
2021/11/12 01:11:20;;;;;;;260.15;82.80;;;1.20;99.90;;;;;;5035001;28;20156;-73
2021/11/12 01:13:48;;;;;;;198.98;69.85;;;1.30;99.90;;;;;;5035201;28;20030;-73
2021/11/12 01:16:14;;;;;;;238.98;74.03;;;1.40;99.90;;;;;;5035170;28;20434;-73
2021/11/12 01:18:40;;;;;;;194.80;69.18;;;1.40;99.90;;;;;;5035043;28;20036;-74
2021/11/12 01:21:11;;;;;;;321.90;84.85;;;1.40;99.90;;;;;;5034998;28;20025;-74
2021/11/12 01:23:39;;;;;;;209.05;75.30;;;1.40;99.90;;;;;;5034992;28;20022;-73
2021/11/12 01:26:05;;;;;;;183.38;73.10;;;1.50;99.90;;;;;;5034971;28;20516;-73
2021/11/12 01:28:32;;;;;;;219.35;72.63;;;1.50;99.90;;;;;;5034884;28;20036;-73
2021/11/12 01:30:58;;;;;;;210.65;76.75;;;1.50;99.90;;;;;;5034831;28;20075;-73
2021/11/12 01:33:24;;;;;;;178.02;63.30;;;1.50;99.90;;;;;;5034751;28;20036;-73
2021/11/12 01:35:50;;;;;;;141.55;59.72;;;1.50;99.90;;;;;;5033452;28;20152;-73
2021/11/12 01:38:16;;;;;;;298.25;79.03;;;1.50;99.90;;;;;;5032877;28;20116;-73
2021/11/12 01:40:42;;;;;;;191.20;68.65;;;1.60;99.90;;;;;;5034570;28;20032;-74
2021/11/12 01:50:51;;;;;;;193.63;58.35;;;1.60;99.90;;;;;;5034701;28;20032;-73
2021/11/12 01:53:26;;;;;;;184.25;60.30;;;1.60;99.90;;;;;;5034568;28;20499;-73
2021/11/12 01:56:10;;;;;;;310.25;77.93;;;1.60;99.90;;;;;;5033345;28;20391;-74
2021/11/12 02:01:22;;;;;;;272.30;66.20;;;1.60;99.90;;;;;;5034294;28;20035;-73
2021/11/12 02:03:52;;;;;;;269.25;63.60;;;1.50;99.90;;;;;;5021774;28;20030;-73
2021/11/12 02:06:21;;;;;;;298.27;63.25;;;1.40;99.90;;;;;;5031990;28;20552;-73
2021/11/12 02:08:47;;;;;;;297.02;67.43;;;1.40;99.90;;;;;;5031753;28;20029;-73
2021/11/12 02:11:14;;;;;;;281.70;61.72;;;1.30;99.90;;;;;;5014836;28;20156;-73
2021/11/12 02:13:41;;;;;;;191.60;57.70;;;1.20;99.90;;;;;;5014205;28;20026;-73
2021/11/12 02:16:10;;;;;;;320.40;72.05;;;1.20;99.90;;;;;;5012926;28;20506;-73
2021/11/12 02:18:38;;;;;;;211.55;64.40;;;1.20;99.90;;;;;;5013918;28;20460;-73
2021/11/12 02:23:38;;;;;;;339.33;79.57;;;1.10;99.90;;;;;;5034185;28;20029;-73
2021/11/12 02:26:07;;;;;;;328.92;73.32;;;1.20;99.90;;;;;;5032569;28;20041;-73
2021/11/12 02:28:35;;;;;;;196.98;58.70;;;1.10;99.90;;;;;;5032423;28;20018;-73
2021/11/12 02:31:00;;;;;;;249.43;65.65;;;1.20;99.90;;;;;;5033681;28;20032;-73
2021/11/12 02:33:26;;;;;;;267.77;65.95;;;1.20;99.90;;;;;;5033531;28;20487;-73
2021/11/12 02:36:14;;;;;;;267.25;64.95;;;1.20;99.90;;;;;;5033604;28;20061;-74
2021/11/12 02:38:46;;;;;;;237.75;61.88;;;1.10;99.90;;;;;;5032214;28;20025;-73
2021/11/12 02:41:12;;;;;;;248.90;64.57;;;1.20;99.90;;;;;;5033426;28;20022;-73
2021/11/12 02:43:41;;;;;;;229.75;58.63;;;1.20;99.90;;;;;;5021858;28;20029;-73
2021/11/12 02:46:09;;;;;;;390.27;85.97;;;1.20;99.90;;;;;;5033459;28;20045;-73
2021/11/12 02:48:37;;;;;;;161.85;56.60;;;1.20;99.90;;;;;;5031515;28;20029;-73
2021/11/12 02:51:04;;;;;;;245.35;64.35;;;1.20;99.90;;;;;;5033112;28;20117;-73
2021/11/12 02:53:30;;;;;;;145.45;56.38;;;1.20;99.90;;;;;;5033292;28;20430;-73
2021/11/12 02:56:01;;;;;;;171.45;59.35;;;1.20;99.90;;;;;;5033233;28;20059;-73
2021/11/12 02:58:27;;;;;;;271.73;76.68;;;1.30;99.90;;;;;;5033363;28;20064;-73
2021/11/12 03:00:53;;;;;;;292.73;81.10;;;1.30;99.90;;;;;;5033160;28;20022;-73
2021/11/12 03:03:18;;;;;;;230.88;68.47;;;1.30;99.90;;;;;;5033238;28;20024;-73
2021/11/12 03:05:44;;;;;;;307.08;81.40;;;1.30;99.90;;;;;;5031744;28;20375;-73
2021/11/12 03:08:10;;;;;;;173.70;56.47;;;1.30;99.90;;;;;;5033151;28;20017;-73
2021/11/12 03:10:36;;;;;;;197.75;59.97;;;1.30;99.90;;;;;;5031699;28;20155;-73
2021/11/12 03:13:01;;;;;;;397.80;86.50;;;1.30;99.90;;;;;;5033029;28;20046;-73
2021/11/12 03:15:27;;;;;;;270.63;64.13;;;1.20;99.90;;;;;;5032914;28;20445;-73
2021/11/12 03:17:55;;;;;;;245.45;75.63;;;1.20;99.90;;;;;;5032999;28;20056;-73
2021/11/12 03:20:23;;;;;;;399.77;114.15;;;1.20;99.90;;;;;;5031486;28;20028;-73
2021/11/12 03:23:03;;;;;;;300.15;98.95;;;1.20;99.90;;;;;;5031651;28;20014;-73
2021/11/12 03:25:40;;;;;;;205.77;90.55;;;1.20;99.90;;;;;;5032811;28;20064;-73
2021/11/12 05:45:33;;;;;;;495.65;151.95;;;1.90;99.90;;;;;;5034851;28;20053;-73
2021/11/12 05:56:10;;;;;;;336.75;75.35;;;2.00;99.90;;;;;;5031232;28;20052;-73
2021/11/12 05:58:36;;;;;;;159.63;57.40;;;1.90;99.90;;;;;;5034336;28;20022;-73
2021/11/12 06:01:03;;;;;;;360.40;82.10;;;1.90;99.90;;;;;;5032787;28;20037;-73
2021/11/12 06:03:28;;;;;;;269.20;67.72;;;1.90;99.90;;;;;;5032845;28;20075;-73
2021/11/12 06:05:54;;;;;;;311.10;79.22;;;1.90;99.90;;;;;;5034074;28;20467;-73
2021/11/12 06:08:20;;;;;;;302.05;76.10;;;2.00;99.90;;;;;;5034245;28;20025;-73
2021/11/12 06:10:46;;;;;;;190.50;63.75;;;2.00;99.90;;;;;;5034431;28;20034;-73
2021/11/12 06:13:11;;;;;;;531.88;120.40;;;2.00;99.90;;;;;;5034001;28;20132;-73
2021/11/12 06:15:39;;;;;;;236.35;83.10;;;2.00;99.90;;;;;;5033940;28;20032;-73
2021/11/12 06:18:06;;;;;;;449.38;125.85;;;2.10;99.90;;;;;;5032727;28;20517;-73
2021/11/12 06:20:32;;;;;;;501.52;111.15;;;2.00;99.90;;;;;;5033845;28;20033;-73
2021/11/12 06:22:58;;;;;;;190.48;67.75;;;2.00;99.90;;;;;;5033787;28;20021;-73
2021/11/12 06:25:24;;;;;;;327.10;88.63;;;2.10;99.90;;;;;;5033820;28;20394;-73
2021/11/12 06:27:50;;;;;;;197.65;62.33;;;2.10;99.90;;;;;;5033748;28;20030;-73
2021/11/12 06:30:16;;;;;;;250.68;70.55;;;2.10;99.90;;;;;;5033799;28;20033;-73
2021/11/12 06:32:42;;;;;;;216.15;64.53;;;2.20;99.90;;;;;;5033577;28;20052;-73
2021/11/12 06:35:09;;;;;;;367.77;78.28;;;2.20;99.90;;;;;;5033745;28;20048;-74
2021/11/12 06:37:34;;;;;;;333.50;80.75;;;2.20;99.90;;;;;;5033628;28;20029;-73
2021/11/12 06:40:01;;;;;;;354.88;78.00;;;2.20;99.90;;;;;;5033506;28;20391;-73
2021/11/12 06:42:30;;;;;;;294.35;78.20;;;2.20;99.90;;;;;;5033458;28;20056;-73
2021/11/12 06:50:12;;;;;;;354.23;79.13;;;2.30;99.90;;;;;;5033550;28;20556;-73
2021/11/12 06:52:39;;;;;;;471.83;101.57;;;2.30;99.90;;;;;;5033208;28;20033;-73
2021/11/12 06:55:06;;;;;;;338.25;73.30;;;2.30;99.90;;;;;;5033396;28;20052;-73
2021/11/12 06:57:32;;;;;;;262.90;66.32;;;2.40;99.90;;;;;;5031992;28;20034;-73
2021/11/12 06:59:58;;;;;;;211.05;63.20;;;2.40;99.90;;;;;;5031949;28;20029;-73
2021/11/12 07:02:25;;;;;;;202.48;57.92;;;2.40;99.90;;;;;;5033213;28;20429;-73
2021/11/12 07:04:51;;;;;;;161.38;55.97;;;2.40;99.90;;;;;;5033063;28;20063;-73
2021/11/12 07:07:17;;;;;;;145.30;50.25;;;2.50;99.90;;;;;;5033224;28;20033;-73
2021/11/12 07:09:46;;;;;;;169.95;57.35;;;2.50;99.90;;;;;;5032900;28;20080;-73
2021/11/12 07:12:13;;;;;;;286.55;73.88;;;2.60;99.90;;;;;;5032992;28;20033;-73
2021/11/12 07:14:39;;;;;;;309.45;84.85;;;2.50;99.90;;;;;;5032927;28;20532;-73
2021/11/12 07:17:05;;;;;;;427.35;94.65;;;2.60;99.90;;;;;;5033101;28;20129;-73
2021/11/12 07:19:31;;;;;;;387.42;90.93;;;2.60;99.90;;;;;;5032822;28;20021;-74
2021/11/12 07:21:58;;;;;;;466.45;104.68;;;2.60;99.90;;;;;;5032921;28;20030;-73
2021/11/12 07:24:25;;;;;;;312.70;72.20;;;2.60;99.90;;;;;;5032861;28;20075;-73
2021/11/12 07:26:50;;;;;;;374.38;92.93;;;2.70;99.90;;;;;;5032826;28;20029;-73
2021/11/12 07:29:18;;;;;;;411.13;112.57;;;2.60;99.90;;;;;;5031637;28;20032;-73
2021/11/12 07:31:44;;;;;;;771.47;307.42;;;2.70;99.90;;;;;;5032735;28;20029;-73
2021/11/12 07:34:11;;;;;;;541.15;189.48;;;2.70;99.90;;;;;;5032688;28;20483;-73
2021/11/12 07:36:39;;;;;;;441.60;166.07;;;2.70;99.90;;;;;;5032295;28;20021;-73
2021/11/12 07:39:11;;;;;;;439.58;159.13;;;2.80;99.90;;;;;;5032549;28;20025;-73
2021/11/12 07:49:30;;;;;;;252.02;64.00;;;2.90;99.90;;;;;;5030837;28;20026;-73
2021/11/12 07:51:56;;;;;;;284.60;64.68;;;2.90;99.90;;;;;;5030844;28;20120;-73
2021/11/12 07:54:22;;;;;;;209.50;60.58;;;2.90;99.90;;;;;;5036866;28;20549;-73
2021/11/12 07:56:48;;;;;;;199.80;56.72;;;3.00;99.90;;;;;;5031337;28;20014;-73
2021/11/12 07:59:14;;;;;;;268.63;62.65;;;3.00;99.90;;;;;;5032702;28;20028;-73
2021/11/12 08:01:40;;;;;;;176.40;57.55;;;3.00;99.90;;;;;;5032527;28;20026;-73
2021/11/12 08:04:07;;;;;;;270.85;74.70;;;3.00;99.90;;;;;;5027323;28;20029;-73
2021/11/12 08:06:33;;;;;;;317.95;75.43;;;3.10;99.90;;;;;;5011471;28;20080;-73
2021/11/12 08:09:08;;;;;;;331.20;84.40;;;3.10;99.90;;;;;;5012762;28;20029;-73
2021/11/12 08:14:14;;;;;;;321.02;74.10;;;3.10;99.90;;;;;;5019101;28;20034;-74
2021/11/12 08:17:01;;;;;;;309.85;84.47;;;3.00;99.90;;;;;;5032428;28;20033;-73
2021/11/12 08:24:52;;;;;;;218.07;69.47;;;3.00;99.90;;;;;;5020500;28;20037;-73
2021/11/12 08:27:52;;;;;;;227.10;63.88;;;3.10;99.90;;;;;;5012396;28;20026;-73
2021/11/12 08:43:23;;;;;;;411.42;116.15;;;3.30;99.90;;;;;;5031950;28;20024;-73
2021/11/12 08:48:22;;;;;;;286.20;72.65;;;3.40;99.90;;;;;;5034517;28;20091;-73
2021/11/12 08:50:48;;;;;;;172.10;55.38;;;3.50;99.90;;;;;;5035498;28;20049;-73
2021/11/12 08:53:15;;;;;;;221.13;61.00;;;3.60;99.90;;;;;;5035660;28;20041;-73
2021/11/12 08:55:43;;;;;;;200.05;61.88;;;3.60;99.90;;;;;;5035465;28;20022;-73
2021/11/12 08:58:11;;;;;;;187.27;63.00;;;3.70;99.90;;;;;;5034279;28;20025;-73
2021/11/12 09:00:39;;;;;;;217.68;65.15;;;3.70;99.90;;;;;;5035421;28;20364;-73
2021/11/12 09:03:06;;;;;;;197.13;61.78;;;3.80;99.90;;;;;;5035455;28;20023;-73
2021/11/12 09:05:32;;;;;;;163.70;58.47;;;3.80;99.90;;;;;;5035295;28;20026;-73
2021/11/12 09:07:58;;;;;;;171.50;58.88;;;3.80;99.90;;;;;;5050737;28;20475;-73
2021/11/12 09:10:26;;;;;;;166.40;57.53;;;3.80;99.90;;;;;;5035375;28;20025;-73
2021/11/12 09:12:59;;;;;;;164.18;59.47;;;3.80;99.90;;;;;;5050554;28;20040;-73
2021/11/12 09:15:30;;;;;;;153.38;57.35;;;3.90;99.90;;;;;;5034910;28;20049;-73
2021/11/12 09:17:58;;;;;;;164.75;61.97;;;3.90;99.90;;;;;;5035191;28;20108;-73
2021/11/12 09:20:24;;;;;;;160.20;61.17;;;3.90;99.90;;;;;;5034990;28;20418;-73
2021/11/12 09:22:52;;;;;;;155.85;62.47;;;4.00;99.90;;;;;;5033846;28;20022;-73
2021/11/12 09:25:18;;;;;;;142.25;55.92;;;4.00;99.90;;;;;;5035018;28;20029;-73
2021/11/12 09:27:44;;;;;;;148.25;50.78;;;4.00;99.90;;;;;;5034603;28;20033;-73
2021/11/12 09:30:14;;;;;;;134.88;48.22;;;4.00;99.90;;;;;;5034849;28;20024;-73
2021/11/12 09:32:40;;;;;;;122.60;46.17;;;4.10;99.90;;;;;;5034822;28;20486;-73
2021/11/12 09:35:07;;;;;;;130.40;48.83;;;4.10;99.90;;;;;;5034229;28;20030;-73
2021/11/12 09:37:32;;;;;;;128.73;49.70;;;4.20;99.90;;;;;;5032962;28;20019;-74
2021/11/12 09:39:58;;;;;;;133.63;50.55;;;4.20;99.90;;;;;;5034174;28;20117;-73
2021/11/12 09:42:30;;;;;;;139.90;64.60;;;4.20;99.90;;;;;;5032697;28;20041;-73
2021/11/12 09:44:57;;;;;;;125.63;55.17;;;4.20;99.90;;;;;;5033489;28;20079;-73
2021/11/12 09:47:27;;;;;;;127.57;57.45;;;4.20;99.90;;;;;;5031442;28;20014;-73
2021/11/12 09:49:55;;;;;;;135.30;60.65;;;4.20;99.90;;;;;;5033258;28;20030;-73
2021/11/12 09:52:23;;;;;;;125.43;57.75;;;4.20;99.90;;;;;;5032687;28;20372;-73
2021/11/12 09:54:51;;;;;;;109.65;46.65;;;4.20;99.90;;;;;;5033960;28;20018;-73
2021/11/12 09:57:17;;;;;;;127.20;57.10;;;4.20;99.90;;;;;;5033992;28;20036;-73
2021/11/12 09:59:51;;;;;;;111.85;44.38;;;4.20;99.90;;;;;;5031243;28;20163;-73
2021/11/12 10:02:18;;;;;;;103.72;44.92;;;4.30;99.90;;;;;;5031017;28;20025;-73
2021/11/12 10:04:45;;;;;;;94.20;40.95;;;4.30;99.90;;;;;;5030991;28;20024;-73
2021/11/12 10:07:13;;;;;;;104.05;41.92;;;4.30;99.90;;;;;;5033825;28;20383;-73
2021/11/12 10:09:40;;;;;;;94.85;40.72;;;4.40;99.90;;;;;;5031903;28;20499;-73
2021/11/12 10:12:08;;;;;;;107.38;42.97;;;4.40;99.90;;;;;;5033670;28;20164;-73
2021/11/12 10:14:52;;;;;;;97.25;38.38;;;4.50;99.90;;;;;;5032650;28;20487;-73
2021/11/12 10:17:21;;;;;;;;;;;4.50;99.90;;;;;;5031240;28;20120;-74
2021/11/12 10:19:54;;;;;;;102.68;41.38;;;4.50;99.90;;;;;;5030832;28;19998;-74
2021/11/12 10:22:27;;;;;;;103.32;39.22;;;4.60;99.90;;;;;;5031250;28;20400;-73
2021/11/12 10:24:54;;;;;;;105.25;43.15;;;4.60;99.90;;;;;;5028947;28;20635;-74
2021/11/12 10:27:28;;;;;;;89.63;39.08;;;4.60;99.90;;;;;;5031692;28;20112;-73
2021/11/12 10:29:56;;;;;;;93.50;41.08;;;4.60;99.90;;;;;;5029556;28;20014;-73
2021/11/12 10:32:32;;;;;;;89.45;36.75;;;4.70;99.90;;;;;;5032151;28;20060;-73
2021/11/12 10:35:03;;;;;;;93.25;39.65;;;4.70;99.90;;;;;;5033361;28;20025;-73
2021/11/12 10:37:33;;;;;;;82.68;36.08;;;4.70;99.90;;;;;;5033802;28;20384;-73
2021/11/12 10:40:07;;;;;;;77.97;37.13;;;4.70;99.90;;;;;;5033470;28;20024;-73
2021/11/12 10:42:35;;;;;;;91.53;44.63;;;4.80;99.90;;;;;;5033096;28;20589;-73
2021/11/12 10:45:12;;;;;;;94.05;40.33;;;4.80;99.90;;;;;;5032988;28;20488;-73
2021/11/12 10:47:56;;;;;;;86.03;39.13;;;4.80;99.90;;;;;;5031769;28;20021;-73
2021/11/12 10:50:28;;;;;;;88.25;37.72;;;4.80;99.90;;;;;;5031070;28;20435;-73
2021/11/12 10:53:00;;;;;;;96.15;36.22;;;4.80;99.90;;;;;;5031587;28;20041;-73
2021/11/12 10:55:26;;;;;;;89.80;36.67;;;4.80;99.90;;;;;;5030105;28;20014;-73
2021/11/12 10:58:00;;;;;;;88.63;37.70;;;4.80;99.90;;;;;;5033283;28;20398;-73
2021/11/12 11:00:26;;;;;;;89.53;37.20;;;4.80;99.90;;;;;;5033231;28;20028;-73
2021/11/12 11:02:53;;;;;;;89.65;36.45;;;4.80;99.90;;;;;;5033011;28;20014;-73
2021/11/12 11:05:21;;;;;;;81.75;35.17;;;4.80;99.90;;;;;;5033014;28;20037;-74
2021/11/12 11:08:17;;;;;;;82.72;37.10;;;4.80;99.90;;;;;;5033135;28;20028;-74
2021/11/12 11:11:02;;;;;;;87.07;36.78;;;4.80;99.90;;;;;;5023323;28;20049;-74
2021/11/12 11:13:30;;;;;;;89.93;37.25;;;4.70;99.90;;;;;;5033072;28;20033;-73
2021/11/12 11:16:03;;;;;;;88.13;36.33;;;4.70;99.90;;;;;;5032985;28;20029;-73
2021/11/12 11:18:30;;;;;;;90.72;38.67;;;4.80;99.90;;;;;;5033106;28;20030;-73
2021/11/12 11:21:06;;;;;;;88.88;38.35;;;4.80;99.90;;;;;;5032915;28;20033;-73
2021/11/12 11:23:52;;;;;;;91.00;40.30;;;4.80;99.90;;;;;;5032964;28;20036;-73
2021/11/12 11:26:21;;;;;;;87.68;36.05;;;4.80;99.90;;;;;;5033113;28;20017;-74
2021/11/12 11:28:49;;;;;;;87.82;36.97;;;4.80;99.90;;;;;;5031565;28;20029;-74
2021/11/12 11:31:16;;;;;;;89.20;38.70;;;4.80;99.90;;;;;;5032954;28;20022;-74
2021/11/12 11:33:44;;;;;;;80.60;35.63;;;4.80;99.90;;;;;;5030136;28;20061;-74
2021/11/12 11:36:12;;;;;;;92.55;35.70;;;4.80;99.90;;;;;;5013035;28;20141;-74
2021/11/12 11:38:40;;;;;;;79.70;34.72;;;4.70;99.90;;;;;;5011577;28;20030;-74
2021/11/12 11:41:14;;;;;;;82.35;37.75;;;4.80;99.90;;;;;;5012977;28;20018;-74
2021/11/12 11:43:40;;;;;;;74.25;32.05;;;4.80;99.90;;;;;;5019323;28;20034;-74
2021/11/12 11:46:10;;;;;;;72.65;32.97;;;4.80;99.90;;;;;;5032592;28;20368;-73
2021/11/12 11:48:43;;;;;;;73.30;32.40;;;4.80;99.90;;;;;;5031674;28;20108;-73
2021/11/12 11:51:15;;;;;;;83.13;35.95;;;4.80;99.90;;;;;;5032642;28;20044;-73
2021/11/12 11:53:44;;;;;;;76.57;33.85;;;4.80;99.90;;;;;;5032603;28;20091;-74
2021/11/12 11:56:17;;;;;;;79.97;33.60;;;4.80;99.90;;;;;;5032590;28;20064;-74
2021/11/12 11:59:12;;;;;;;77.15;32.67;;;4.90;99.90;;;;;;5031050;28;20031;-74
2021/11/12 12:01:48;;;;;;;75.80;35.25;;;4.80;99.90;;;;;;5023630;28;20041;-74
2021/11/12 12:04:13;;;;;;;83.07;37.90;;;4.90;99.90;;;;;;5032590;28;20026;-74
2021/11/12 12:07:01;;;;;;;86.43;37.15;;;4.90;99.90;;;;;;5032414;28;20076;-73
2021/11/12 12:10:02;;;;;;;80.57;34.97;;;5.00;99.90;;;;;;5031015;28;20040;-74
2021/11/12 12:12:31;;;;;;;81.35;36.20;;;4.90;99.90;;;;;;5032225;28;20052;-74
2021/11/12 12:15:07;;;;;;;79.50;34.13;;;4.90;99.90;;;;;;5032398;28;20471;-74
2021/11/12 12:17:35;;;;;;;83.20;36.15;;;4.90;99.90;;;;;;5032464;28;20467;-73
2021/11/12 12:37:12;;;;;;;81.07;34.05;;;4.90;99.90;;;;;;5016244;28;20506;-74
2021/11/12 13:25:37;;;;;;;72.60;34.35;;;5.20;99.90;;;;;;5035305;28;20068;-74
2021/11/12 13:28:07;;;;;;;72.60;31.52;;;5.20;99.90;;;;;;5033835;28;20037;-73
2021/11/12 13:30:33;;;;;;;68.68;34.58;;;5.20;99.90;;;;;;5033638;28;20034;-73
2021/11/12 13:33:00;;;;;;;77.53;34.90;;;5.30;99.90;;;;;;5032779;28;20033;-73
2021/11/12 13:35:34;;;;;;;72.95;33.55;;;5.20;99.90;;;;;;5034774;28;20025;-74
2021/11/12 13:38:01;;;;;;;69.38;31.75;;;5.20;99.90;;;;;;5034762;28;20037;-74
2021/11/12 13:40:34;;;;;;;70.03;33.75;;;5.20;99.90;;;;;;5034723;28;20509;-74
2021/11/12 13:43:00;;;;;;;;;;;5.20;99.90;;;;;;5034897;28;20029;-74
2021/11/12 13:45:28;;;;;;;70.38;32.33;;;5.20;99.90;;;;;;5014983;28;20264;-74
2021/11/12 13:48:10;;;;;;;69.93;31.35;;;5.20;99.90;;;;;;5034192;28;20440;-74
2021/11/12 13:50:41;;;;;;;84.78;37.45;;;5.10;99.90;;;;;;5034609;28;20045;-74
2021/11/12 13:53:08;;;;;;;74.57;34.80;;;5.20;99.90;;;;;;5034439;28;20033;-73
2021/11/12 13:55:36;;;;;;;80.22;34.80;;;5.20;99.90;;;;;;5034468;28;20389;-73
2021/11/12 13:58:04;;;;;;;83.88;35.90;;;5.30;99.90;;;;;;5034429;28;20029;-74
2021/11/12 14:00:31;;;;;;;79.20;35.65;;;5.30;99.90;;;;;;5033035;28;20032;-74
2021/11/12 14:03:08;;;;;;;71.90;35.45;;;5.30;99.90;;;;;;5026220;28;20018;-74
2021/11/12 14:05:37;;;;;;;76.53;36.78;;;5.30;99.90;;;;;;5013154;28;20018;-74
2021/11/12 14:08:12;;;;;;;74.82;34.25;;;5.30;99.90;;;;;;5014418;28;20468;-74
2021/11/12 14:10:40;;;;;;;84.82;40.50;;;5.30;99.90;;;;;;5014678;28;20037;-74
2021/11/12 14:13:08;;;;;;;79.95;35.90;;;5.30;99.90;;;;;;5013149;28;20030;-74
2021/11/12 14:15:44;;;;;;;80.85;38.72;;;5.30;99.90;;;;;;5014242;28;20091;-74
2021/11/12 14:23:59;;;;;;;89.50;39.80;;;5.20;99.90;;;;;;5033667;28;20502;-74
2021/11/12 14:40:40;;;;;;;71.85;33.90;;;5.20;99.90;;;;;;5032989;28;20044;-74
2021/11/12 14:45:41;;;;;;;78.85;37.15;;;5.10;99.90;;;;;;5031442;28;20033;-73
2021/11/12 14:51:19;;;;;;;72.90;33.95;;;5.10;99.90;;;;;;5030696;28;20080;-74
2021/11/12 14:53:52;;;;;;;71.68;33.28;;;5.10;99.90;;;;;;5011553;28;20053;-74
2021/11/12 14:56:28;;;;;;;76.47;34.03;;;5.00;99.90;;;;;;5016471;28;20029;-74
2021/11/12 14:59:05;;;;;;;72.95;35.88;;;5.00;99.90;;;;;;5022297;28;20033;-74
2021/11/12 15:01:33;;;;;;;77.25;35.72;;;5.00;99.90;;;;;;5030865;28;20022;-74
2021/11/12 15:03:59;;;;;;;81.22;37.63;;;4.90;99.90;;;;;;5031428;28;20033;-74
2021/11/12 15:06:27;;;;;;;71.32;34.22;;;4.90;99.90;;;;;;5030137;28;20409;-73
2021/11/12 15:09:00;;;;;;;75.70;35.95;;;4.90;99.90;;;;;;5029068;28;20040;-74
2021/11/12 15:11:28;;;;;;;81.55;37.25;;;4.90;99.90;;;;;;5031457;28;20048;-74
2021/11/12 15:14:03;;;;;;;79.93;40.97;;;4.90;99.90;;;;;;5032089;28;20040;-74
2021/11/12 15:16:29;;;;;;;79.30;38.65;;;4.90;99.90;;;;;;5031362;28;20029;-74
2021/11/12 15:18:58;;;;;;;81.38;38.33;;;4.90;99.90;;;;;;5020744;28;20049;-74
2021/11/12 15:21:28;;;;;;;79.22;36.38;;;4.80;99.90;;;;;;5021011;28;20510;-74
2021/11/12 15:24:03;;;;;;;77.63;35.22;;;4.70;99.90;;;;;;5021666;28;20027;-74
2021/11/12 15:29:10;;;;;;;79.22;35.55;;;4.70;99.90;;;;;;5025292;28;20021;-74
2021/11/12 15:34:16;;;;;;;87.40;40.05;;;4.60;99.90;;;;;;5023983;28;20045;-74
2021/11/12 15:37:27;;;;;;;80.57;36.28;;;4.50;99.90;;;;;;5021690;28;20075;-74
2021/11/12 15:39:39;;;;;;;77.82;37.08;;;4.50;99.90;;;;;;5017454;28;20026;-73
2021/11/12 15:44:36;;;;;;;77.45;34.95;;;4.40;99.90;;;;;;5026761;28;20034;-74
2021/11/12 15:47:19;;;;;;;75.03;36.13;;;4.40;99.90;;;;;;5026324;28;20028;-74
2021/11/12 15:49:45;;;;;;;81.50;36.65;;;4.40;99.90;;;;;;5023726;28;20108;-74
2021/11/12 15:52:18;;;;;;;86.68;39.83;;;4.40;99.90;;;;;;5024039;28;20179;-73
2021/11/12 15:55:12;;;;;;;89.00;37.80;;;4.40;99.90;;;;;;5019459;28;20041;-74
2021/11/12 16:00:26;;;;;;;87.85;39.65;;;4.30;99.90;;;;;;5025325;28;20461;-74
2021/11/12 16:08:23;;;;;;;98.47;42.65;;;4.30;99.90;;;;;;5028085;28;20026;-74
2021/11/12 16:16:23;;;;;;;79.80;36.50;;;4.30;99.90;;;;;;5030916;28;20021;-74
2021/11/12 16:18:56;;;;;;;91.60;39.97;;;4.30;99.90;;;;;;5031587;28;20022;-74
2021/11/12 16:21:42;;;;;;;87.32;39.67;;;4.30;99.90;;;;;;5026807;28;20510;-74
2021/11/12 16:26:37;;;;;;;93.82;41.22;;;4.30;99.90;;;;;;5032979;28;20434;-74
2021/11/12 16:29:41;;;;;;;92.95;42.15;;;4.30;99.90;;;;;;5036072;28;20116;-74
2021/11/12 16:31:59;;;;;;;92.78;41.72;;;4.30;99.90;;;;;;5025526;28;20025;-74
2021/11/12 16:34:25;;;;;;;99.63;44.65;;;4.30;99.90;;;;;;5035818;28;20061;-74
2021/11/12 16:37:02;;;;;;;105.45;45.80;;;4.30;99.90;;;;;;5036053;28;20104;-74
2021/11/12 16:39:36;;;;;;;101.32;48.35;;;4.30;99.90;;;;;;5035983;28;20452;-74
2021/11/12 16:42:27;;;;;;;124.35;66.40;;;4.30;99.90;;;;;;5036343;28;20079;-74
2021/11/12 16:47:29;;;;;;;122.88;61.15;;;4.30;99.90;;;;;;5035923;28;20479;-74
2021/11/12 16:57:52;;;;;;;222.02;96.05;;;4.30;99.90;;;;;;5035744;28;20021;-74
2021/11/12 17:08:07;;;;;;;167.10;69.75;;;4.20;99.90;;;;;;5034665;28;20037;-74
2021/11/12 17:10:49;;;;;;;186.82;75.32;;;4.20;99.90;;;;;;5035658;28;20030;-73
2021/11/12 17:13:32;;;;;;;183.07;69.13;;;4.20;99.90;;;;;;5034253;28;20042;-74
2021/11/12 17:24:02;;;;;;;135.75;54.50;;;4.10;99.90;;;;;;5027531;28;20033;-73
2021/11/12 17:47:45;;;;;;;191.93;78.38;;;4.00;99.90;;;;;;5029521;28;20029;-74
2021/11/12 18:03:54;;;;;;;150.00;60.28;;;3.90;99.90;;;;;;5020988;28;20042;-74
2021/11/12 18:06:27;;;;;;;148.82;58.72;;;3.90;99.90;;;;;;5027838;28;20100;-74
2021/11/12 21:44:23;;;;;;;144.70;46.53;;;3.00;99.90;;;;;;5017684;28;20033;-74
2021/11/12 21:46:49;;;;;;;120.95;40.30;;;3.10;99.90;;;;;;5015034;28;20026;-73
2021/11/12 21:49:15;;;;;;;144.20;39.92;;;3.00;99.90;;;;;;5015059;28;20026;-73
2021/11/12 21:51:42;;;;;;;132.32;39.60;;;3.00;99.90;;;;;;5013626;28;20483;-74
2021/11/12 21:54:09;;;;;;;147.82;44.53;;;3.00;99.90;;;;;;5014088;28;20042;-73
2021/11/12 21:56:35;;;;;;;151.55;43.15;;;3.00;99.90;;;;;;5030008;28;20027;-74
2021/11/12 21:59:02;;;;;;;136.95;40.40;;;3.00;99.90;;;;;;5033279;28;20112;-73
2021/11/12 22:01:28;;;;;;;163.35;54.25;;;3.10;99.90;;;;;;5034477;28;20052;-73
2021/11/12 22:03:54;;;;;;;130.95;43.33;;;3.10;99.90;;;;;;5034413;28;20475;-73
2021/11/12 22:06:20;;;;;;;125.22;41.58;;;3.10;99.90;;;;;;5033990;28;20036;-74
2021/11/12 22:08:46;;;;;;;131.18;41.33;;;3.10;99.90;;;;;;5033082;28;20486;-73
2021/11/12 22:11:13;;;;;;;136.13;41.78;;;3.00;99.90;;;;;;5033202;28;20116;-74
2021/11/12 22:13:39;;;;;;;134.30;40.92;;;3.00;99.90;;;;;;5032905;28;20541;-73
2021/11/12 22:16:10;;;;;;;134.75;44.35;;;3.00;99.90;;;;;;5034197;28;20030;-74
2021/11/12 22:18:37;;;;;;;156.57;44.28;;;3.00;99.90;;;;;;5032249;28;20359;-74
2021/11/12 22:21:03;;;;;;;153.10;49.42;;;3.00;99.90;;;;;;5013096;28;20022;-74
2021/11/12 22:23:29;;;;;;;156.43;48.22;;;3.00;99.90;;;;;;5014350;28;20026;-74
2021/11/12 22:25:55;;;;;;;156.02;50.10;;;3.00;99.90;;;;;;5014269;28;20053;-73
2021/11/12 22:28:21;;;;;;;132.20;44.10;;;3.10;99.90;;;;;;5014197;28;20109;-74
2021/11/12 22:30:48;;;;;;;156.05;48.05;;;3.10;99.90;;;;;;5014162;28;20527;-74
2021/11/12 22:33:15;;;;;;;153.20;48.22;;;3.10;99.90;;;;;;5012908;28;20038;-73
2021/11/12 22:35:41;;;;;;;135.15;42.90;;;3.10;99.90;;;;;;5014015;28;20528;-73
2021/11/12 22:38:09;;;;;;;143.07;44.58;;;3.10;99.90;;;;;;5014120;28;20391;-73
2021/11/12 22:40:36;;;;;;;146.43;44.00;;;3.10;99.90;;;;;;5013980;28;20064;-73
2021/11/12 22:43:02;;;;;;;155.30;49.40;;;3.10;99.90;;;;;;5013999;28;20040;-73
2021/11/12 22:45:28;;;;;;;159.05;42.83;;;3.20;99.90;;;;;;5013924;28;20030;-74
2021/11/12 22:47:53;;;;;;;175.77;48.53;;;3.20;99.90;;;;;;5013897;28;20032;-74